createdAt,value
2023-01-09T00:00:01.788Z,12.40
2023-01-09T00:02:28.877Z,12.40
2023-01-09T00:04:56.035Z,12.40
2023-01-09T00:11:17.925Z,12.40
2023-01-09T00:13:53.447Z,12.40
2023-01-09T00:19:15.082Z,12.40
2023-01-09T00:21:42.467Z,12.40
2023-01-09T00:24:10.029Z,12.40
2023-01-09T00:26:37.020Z,12.40
2023-01-09T00:29:06.315Z,12.40
2023-01-09T00:31:33.306Z,12.30
2023-01-09T00:34:03.231Z,12.30
2023-01-09T00:36:30.164Z,12.30
2023-01-09T00:38:57.454Z,12.30
2023-01-09T00:41:36.018Z,12.30
2023-01-09T00:44:11.475Z,12.30
2023-01-09T00:46:43.117Z,12.20
2023-01-09T00:49:11.688Z,12.20
2023-01-09T00:51:40.089Z,12.20
2023-01-09T00:54:08.446Z,12.20
2023-01-09T00:56:36.921Z,12.10
2023-01-09T00:59:04.741Z,12.10
2023-01-09T01:01:32.458Z,12.10
2023-01-09T01:04:19.523Z,12.10
2023-01-09T01:07:05.255Z,12.10
2023-01-09T01:09:32.513Z,12.00
2023-01-09T01:11:59.581Z,12.00
2023-01-09T01:14:27.339Z,12.00
2023-01-09T01:16:54.232Z,12.00
2023-01-09T01:19:21.363Z,12.00
2023-01-09T01:21:48.414Z,12.00
2023-01-09T01:24:19.672Z,12.00
2023-01-09T01:26:47.427Z,12.00
2023-01-09T01:29:14.341Z,12.00
2023-01-09T01:31:41.282Z,12.00
2023-01-09T01:34:08.262Z,12.00
2023-01-09T01:36:35.261Z,12.00
2023-01-09T01:39:02.137Z,12.00
2023-01-09T01:41:31.788Z,12.00
2023-01-09T01:44:04.993Z,12.00
2023-01-09T01:46:33.561Z,12.00
2023-01-09T01:49:14.061Z,12.10
2023-01-09T01:51:46.449Z,12.00
2023-01-09T01:54:19.817Z,12.10
2023-01-09T01:56:51.372Z,12.00
2023-01-09T01:59:23.861Z,12.00
2023-01-09T02:01:54.271Z,12.00
2023-01-09T02:04:21.391Z,12.00
2023-01-09T02:06:50.957Z,12.20
2023-01-09T02:09:22.680Z,12.00
2023-01-09T02:11:54.438Z,12.00
2023-01-09T02:14:24.453Z,12.00
2023-01-09T02:20:13.465Z,12.00
2023-01-09T02:23:10.869Z,12.00
2023-01-09T02:26:02.644Z,12.00
2023-01-09T02:29:01.509Z,12.00
2023-01-09T02:31:50.171Z,12.00
2023-01-09T02:35:00.155Z,12.00
2023-01-09T02:37:29.869Z,11.90
2023-01-09T02:40:00.443Z,12.00
2023-01-09T02:42:27.379Z,12.00
2023-01-09T02:44:54.296Z,11.90
2023-01-09T02:47:21.073Z,12.00
2023-01-09T02:49:54.187Z,12.00
2023-01-09T02:52:58.184Z,12.00
2023-01-09T02:55:43.196Z,11.90
2023-01-09T02:58:18.947Z,12.00
2023-01-09T03:00:58.860Z,11.90
2023-01-09T03:03:52.666Z,12.00
2023-01-09T03:06:28.874Z,12.00
2023-01-09T03:09:01.609Z,11.90
2023-01-09T03:11:33.724Z,11.90
2023-01-09T03:14:07.829Z,11.90
2023-01-09T03:16:37.861Z,11.90
2023-01-09T03:19:10.689Z,11.90
2023-01-09T03:21:38.128Z,11.90
2023-01-09T03:24:05.211Z,11.90
2023-01-09T03:26:32.161Z,11.90
2023-01-09T03:28:59.857Z,11.90
2023-01-09T03:31:26.896Z,11.90
2023-01-09T03:33:53.824Z,11.90
2023-01-09T03:36:22.346Z,11.90
2023-01-09T03:38:49.506Z,11.90
2023-01-09T03:41:16.449Z,11.90
2023-01-09T03:43:43.365Z,11.90
2023-01-09T03:46:10.400Z,11.90
2023-01-09T03:48:37.266Z,11.90
2023-01-09T03:51:04.240Z,11.90
2023-01-09T03:53:31.021Z,12.00
2023-01-09T03:55:58.871Z,12.00
2023-01-09T03:58:26.710Z,11.90
2023-01-09T04:00:59.517Z,11.90
2023-01-09T04:03:26.766Z,11.90
2023-01-09T04:05:54.623Z,11.90
2023-01-09T04:08:21.718Z,11.80
2023-01-09T04:10:50.319Z,11.80
2023-01-09T04:13:17.492Z,11.90
2023-01-09T04:15:44.754Z,11.90
2023-01-09T04:18:11.683Z,11.90
2023-01-09T04:20:38.525Z,11.90
2023-01-09T04:23:05.727Z,11.90
2023-01-09T04:25:32.618Z,11.90
2023-01-09T04:27:59.526Z,11.80
2023-01-09T04:30:26.553Z,11.90
2023-01-09T04:32:53.483Z,11.90
2023-01-09T04:35:20.784Z,11.90
2023-01-09T04:37:47.813Z,11.80
2023-01-09T04:40:15.337Z,11.90
2023-01-09T04:42:42.426Z,11.90
2023-01-09T04:45:11.458Z,11.90
2023-01-09T04:47:38.744Z,12.00
2023-01-09T04:50:05.960Z,11.90
2023-01-09T04:52:32.879Z,11.90
2023-01-09T04:54:59.839Z,11.90
2023-01-09T04:57:26.737Z,11.80
2023-01-09T04:59:54.401Z,11.90
2023-01-09T05:02:21.413Z,11.80
2023-01-09T05:04:48.352Z,11.90
2023-01-09T05:07:15.317Z,11.90
2023-01-09T05:09:42.946Z,11.80
2023-01-09T05:12:10.011Z,11.80
2023-01-09T05:14:36.796Z,11.80
2023-01-09T05:17:03.737Z,11.80
2023-01-09T05:19:30.601Z,11.80
2023-01-09T05:21:57.468Z,11.80
2023-01-09T05:24:24.361Z,11.80
2023-01-09T05:26:51.265Z,11.80
2023-01-09T05:29:18.192Z,11.80
2023-01-09T05:31:45.209Z,11.80
2023-01-09T05:34:12.182Z,11.80
2023-01-09T05:36:39.197Z,11.80
2023-01-09T05:39:06.671Z,11.80
2023-01-09T05:41:33.680Z,11.80
2023-01-09T05:44:00.552Z,11.80
2023-01-09T05:46:27.512Z,11.80
2023-01-09T05:48:54.357Z,11.80
2023-01-09T05:51:21.178Z,11.80
2023-01-09T05:53:48.271Z,11.70
2023-01-09T05:56:15.657Z,11.80
2023-01-09T05:58:42.581Z,11.70
2023-01-09T06:01:09.562Z,11.70
2023-01-09T06:03:36.402Z,11.70
2023-01-09T06:06:03.363Z,11.70
2023-01-09T06:08:30.168Z,11.70
2023-01-09T06:10:57.089Z,11.70
2023-01-09T06:13:23.864Z,11.70
2023-01-09T06:15:50.805Z,11.70
2023-01-09T06:18:17.724Z,11.70
2023-01-09T06:20:45.999Z,11.70
2023-01-09T06:23:13.703Z,11.70
2023-01-09T06:25:41.168Z,11.80
2023-01-09T06:28:08.181Z,11.80
2023-01-09T06:30:35.381Z,11.70
2023-01-09T06:33:02.240Z,11.70
2023-01-09T06:35:29.206Z,11.70
2023-01-09T06:37:56.097Z,11.70
2023-01-09T06:40:23.028Z,11.70
2023-01-09T06:42:50.151Z,11.70
2023-01-09T06:45:17.293Z,11.70
2023-01-09T06:47:44.472Z,11.70
2023-01-09T06:50:11.745Z,11.70
2023-01-09T06:52:39.330Z,11.70
2023-01-09T06:55:07.200Z,11.70
2023-01-09T06:57:34.161Z,11.70
2023-01-09T07:00:01.199Z,11.70
2023-01-09T07:02:28.550Z,11.80
2023-01-09T07:04:55.413Z,11.80
2023-01-09T07:07:22.629Z,11.80
2023-01-09T07:09:50.054Z,11.80
2023-01-09T07:12:16.871Z,11.80
2023-01-09T07:14:43.992Z,11.80
2023-01-09T07:17:13.464Z,11.70
2023-01-09T07:19:40.780Z,11.70
2023-01-09T07:22:08.280Z,11.70
2023-01-09T07:24:35.189Z,11.70
2023-01-09T07:27:02.519Z,11.70
2023-01-09T07:29:29.660Z,11.70
2023-01-09T07:31:56.693Z,11.70
2023-01-09T07:34:23.620Z,11.70
2023-01-09T07:36:51.182Z,11.70
2023-01-09T07:39:18.156Z,11.70
2023-01-09T07:41:45.138Z,11.70
2023-01-09T07:44:12.230Z,11.60
2023-01-09T07:46:39.338Z,11.70
2023-01-09T07:49:06.577Z,11.70
2023-01-09T07:51:33.469Z,11.60
2023-01-09T07:54:00.360Z,11.70
2023-01-09T07:56:27.225Z,11.80
2023-01-09T07:58:54.261Z,11.70
2023-01-09T08:01:21.209Z,11.70
2023-01-09T08:03:48.110Z,11.70
2023-01-09T08:06:15.009Z,11.70
2023-01-09T08:08:43.123Z,11.70
2023-01-09T08:11:10.377Z,11.80
2023-01-09T08:13:37.288Z,11.70
2023-01-09T08:16:04.473Z,11.80
2023-01-09T08:18:31.373Z,11.80
2023-01-09T08:20:58.244Z,11.80
2023-01-09T08:23:25.208Z,11.80
2023-01-09T08:25:53.061Z,11.80
2023-01-09T08:28:19.998Z,11.80
2023-01-09T08:30:47.714Z,11.80
2023-01-09T08:33:15.090Z,11.80
2023-01-09T08:35:44.273Z,11.80
2023-01-09T08:38:11.358Z,11.90
2023-01-09T08:40:38.216Z,11.90
2023-01-09T08:43:24.306Z,11.90
2023-01-09T08:46:09.991Z,11.80
2023-01-09T08:48:37.146Z,11.90
2023-01-09T08:51:04.019Z,11.90
2023-01-09T08:53:31.494Z,11.90
2023-01-09T08:55:59.146Z,11.90
2023-01-09T08:58:26.055Z,11.90
2023-01-09T09:00:52.910Z,11.90
2023-01-09T09:03:19.926Z,12.00
2023-01-09T09:05:46.980Z,11.90
2023-01-09T09:08:14.281Z,11.90
2023-01-09T09:10:41.043Z,12.00
2023-01-09T09:13:07.955Z,12.00
2023-01-09T09:15:34.959Z,12.00
2023-01-09T09:18:07.199Z,12.10
2023-01-09T09:20:38.819Z,12.00
2023-01-09T09:23:08.398Z,12.00
2023-01-09T09:25:38.176Z,11.90
2023-01-09T09:28:05.238Z,11.90
2023-01-09T09:30:32.172Z,11.80
2023-01-09T09:32:59.074Z,11.60
2023-01-09T09:35:25.929Z,11.60
2023-01-09T09:37:57.927Z,11.60
2023-01-09T09:40:46.840Z,11.70
2023-01-09T09:44:00.037Z,11.80
2023-01-09T09:46:36.878Z,11.80
2023-01-09T09:49:36.144Z,11.80
2023-01-09T09:52:16.131Z,11.80
2023-01-09T09:54:50.021Z,11.80
2023-01-09T09:57:20.678Z,11.80
2023-01-09T09:59:51.292Z,11.80
2023-01-09T10:02:29.080Z,11.80
2023-01-09T10:05:17.154Z,11.90
2023-01-09T10:07:51.071Z,11.90
2023-01-09T10:10:41.017Z,11.90
2023-01-09T10:13:27.880Z,11.80
2023-01-09T10:16:22.305Z,11.90
2023-01-09T10:18:58.726Z,12.00
2023-01-09T10:21:28.566Z,11.90
2023-01-09T10:23:55.329Z,11.90
2023-01-09T10:26:36.330Z,11.90
2023-01-09T10:29:16.120Z,11.90
2023-01-09T10:31:46.107Z,11.80
2023-01-09T10:34:24.754Z,11.70
2023-01-09T10:37:07.113Z,11.80
2023-01-09T10:39:41.067Z,11.90
2023-01-09T10:42:37.120Z,11.90
2023-01-09T10:45:36.598Z,11.90
2023-01-09T10:48:28.249Z,11.90
2023-01-09T10:50:56.733Z,11.90
2023-01-09T10:53:28.787Z,12.00
2023-01-09T10:56:02.031Z,12.00
2023-01-09T10:58:29.540Z,12.00
2023-01-09T11:00:58.873Z,12.00
2023-01-09T11:03:28.116Z,12.00
2023-01-09T11:05:58.504Z,12.00
2023-01-09T11:08:42.432Z,12.00
2023-01-09T11:11:10.781Z,12.10
2023-01-09T11:13:41.005Z,12.10
2023-01-09T11:16:11.097Z,12.10
2023-01-09T11:18:53.535Z,12.00
2023-01-09T11:21:41.923Z,12.10
2023-01-09T11:24:21.398Z,12.00
2023-01-09T11:26:50.988Z,11.90
2023-01-09T11:29:20.212Z,11.90
2023-01-09T11:31:59.451Z,12.00
2023-01-09T11:34:30.452Z,12.00
2023-01-09T11:37:14.110Z,12.10
2023-01-09T11:39:47.893Z,12.10
2023-01-09T11:42:50.174Z,12.10
2023-01-09T11:45:23.649Z,12.10
2023-01-09T11:47:50.594Z,12.00
2023-01-09T11:50:18.993Z,12.10
2023-01-09T11:52:46.554Z,12.10
2023-01-09T11:55:19.345Z,12.00
2023-01-09T11:57:46.363Z,12.00
2023-01-09T12:00:29.759Z,12.00
2023-01-09T12:03:24.440Z,12.10
2023-01-09T12:06:27.808Z,12.10
2023-01-09T12:09:05.039Z,12.10
2023-01-09T12:11:47.774Z,12.10
2023-01-09T12:14:23.825Z,12.10
2023-01-09T12:16:59.787Z,12.10
2023-01-09T12:19:51.868Z,12.10
2023-01-09T12:22:28.178Z,12.10
2023-01-09T12:24:55.025Z,12.20
2023-01-09T12:27:36.518Z,12.20
2023-01-09T12:30:21.114Z,12.20
2023-01-09T12:33:16.811Z,12.20
2023-01-09T12:35:51.665Z,12.20
2023-01-09T12:38:49.133Z,12.20
2023-01-09T12:41:31.978Z,12.20
2023-01-09T12:44:35.858Z,12.20
2023-01-09T12:47:28.281Z,12.30
2023-01-09T12:50:07.306Z,12.30
2023-01-09T12:52:42.148Z,12.30
2023-01-09T12:55:21.066Z,12.30
2023-01-09T12:58:02.495Z,12.40
2023-01-09T13:00:35.657Z,12.40
2023-01-09T13:03:18.512Z,12.40
2023-01-09T13:05:53.721Z,12.40
2023-01-09T13:08:36.167Z,12.40
2023-01-09T13:11:27.311Z,12.40
2023-01-09T13:14:20.945Z,12.50
2023-01-09T13:16:52.233Z,12.40
2023-01-09T13:19:39.544Z,12.40
2023-01-09T13:22:07.621Z,12.40
2023-01-09T13:24:56.598Z,12.40
2023-01-09T13:27:29.969Z,12.40
2023-01-09T13:30:11.201Z,12.30
2023-01-09T13:33:11.877Z,12.30
2023-01-09T13:35:53.268Z,12.30
2023-01-09T13:38:23.784Z,12.30
2023-01-09T13:41:32.093Z,12.30
2023-01-09T13:44:19.830Z,12.20
2023-01-09T13:46:50.682Z,12.30
2023-01-09T13:49:53.023Z,12.20
2023-01-09T13:52:31.267Z,12.20
2023-01-09T13:54:58.296Z,12.20
2023-01-09T13:57:34.865Z,12.10
2023-01-09T14:00:14.659Z,12.00
2023-01-09T14:02:42.454Z,12.00
2023-01-09T14:05:14.932Z,11.80
2023-01-09T14:07:42.634Z,11.80
2023-01-09T14:10:30.209Z,11.80
2023-01-09T14:12:58.175Z,11.80
2023-01-09T14:15:32.969Z,11.70
2023-01-09T14:18:05.186Z,11.70
2023-01-09T14:20:38.256Z,11.50
2023-01-09T14:23:31.402Z,11.30
2023-01-09T14:25:55.350Z,11.20
2023-01-09T14:28:27.428Z,11.20
2023-01-09T14:30:54.356Z,11.20
2023-01-09T14:33:25.223Z,11.20
2023-01-09T14:36:21.726Z,11.30
2023-01-09T14:39:00.390Z,11.40
2023-01-09T14:41:52.346Z,11.40
2023-01-09T14:44:27.162Z,11.40
2023-01-09T14:46:56.256Z,11.40
2023-01-09T14:49:38.814Z,11.40
2023-01-09T14:52:21.361Z,11.50
2023-01-09T14:54:49.594Z,11.50
2023-01-09T14:57:34.231Z,11.50
2023-01-09T15:00:07.055Z,11.40
2023-01-09T15:02:36.958Z,11.40
2023-01-09T15:05:09.396Z,11.50
2023-01-09T15:07:44.345Z,11.40
2023-01-09T15:10:21.679Z,11.40
2023-01-09T15:12:51.992Z,11.30
2023-01-09T15:15:23.965Z,11.30
2023-01-09T15:18:00.113Z,11.30
2023-01-09T15:20:30.123Z,11.10
2023-01-09T15:23:00.759Z,11.20
2023-01-09T15:25:39.595Z,11.20
2023-01-09T15:28:35.147Z,11.20
2023-01-09T15:31:11.838Z,11.10
2023-01-09T15:33:40.630Z,11.10
2023-01-09T15:36:15.328Z,10.90
2023-01-09T15:38:45.783Z,10.80
2023-01-09T15:41:44.688Z,10.60
2023-01-09T15:44:26.261Z,10.60
2023-01-09T15:46:58.536Z,10.50
2023-01-09T15:49:25.997Z,10.30
2023-01-09T15:51:53.715Z,10.30
2023-01-09T15:54:33.167Z,10.30
2023-01-09T15:57:27.534Z,10.30
2023-01-09T15:59:55.588Z,10.30
2023-01-09T16:02:43.092Z,10.20
2023-01-09T16:05:20.022Z,10.20
2023-01-09T16:07:49.013Z,10.10
2023-01-09T16:10:25.433Z,10.00
2023-01-09T16:12:54.612Z,10.00
2023-01-09T16:15:22.114Z,10.10
2023-01-09T16:18:28.746Z,10.10
2023-01-09T16:21:12.546Z,10.10
2023-01-09T16:23:51.908Z,10.20
2023-01-09T16:26:21.586Z,10.20
2023-01-09T16:28:48.466Z,10.10
2023-01-09T16:31:33.733Z,10.10
2023-01-09T16:34:06.508Z,10.20
2023-01-09T16:36:37.411Z,10.20
2023-01-09T16:39:04.979Z,10.20
2023-01-09T16:41:50.758Z,10.20
2023-01-09T16:44:19.271Z,10.30
2023-01-09T16:46:46.297Z,10.30
2023-01-09T16:49:23.494Z,10.30
2023-01-09T16:51:51.593Z,10.30
2023-01-09T16:54:18.972Z,10.40
2023-01-09T16:56:49.565Z,10.30
2023-01-09T16:59:21.135Z,10.40
2023-01-09T17:01:48.743Z,10.40
2023-01-09T17:04:17.358Z,10.40
2023-01-09T17:06:44.727Z,10.40
2023-01-09T17:09:13.330Z,10.40
2023-01-09T17:11:40.410Z,10.40
2023-01-09T17:14:09.436Z,10.50
2023-01-09T17:16:36.951Z,10.50
2023-01-09T17:19:04.498Z,10.50
2023-01-09T17:21:32.319Z,10.50
2023-01-09T17:24:28.894Z,10.50
2023-01-09T17:27:14.569Z,10.50
2023-01-09T17:29:41.788Z,10.50
2023-01-09T17:32:16.411Z,10.50
2023-01-09T17:34:43.793Z,10.50
2023-01-09T17:37:19.072Z,10.50
2023-01-09T17:39:46.602Z,10.60
2023-01-09T17:42:13.502Z,10.50
2023-01-09T17:44:40.665Z,10.60
2023-01-09T17:47:15.463Z,10.50
2023-01-09T17:49:42.942Z,10.50
2023-01-09T17:52:09.861Z,10.50
2023-01-09T17:54:36.929Z,10.50
2023-01-09T17:57:04.323Z,10.50
2023-01-09T17:59:31.504Z,10.50
2023-01-09T18:01:58.626Z,10.50
2023-01-09T18:04:25.580Z,10.50
2023-01-09T18:06:54.443Z,10.50
2023-01-09T18:09:21.378Z,10.40
2023-01-09T18:11:48.306Z,10.40
2023-01-09T18:14:16.845Z,10.30
2023-01-09T18:16:45.273Z,10.30
2023-01-09T18:19:12.275Z,10.30
2023-01-09T18:21:39.070Z,10.30
2023-01-09T18:24:06.313Z,10.30
2023-01-09T18:26:33.425Z,10.30
2023-01-09T18:29:00.877Z,10.30
2023-01-09T18:31:29.824Z,10.20
2023-01-09T18:33:58.558Z,10.20
2023-01-09T18:36:30.897Z,10.20
2023-01-09T18:39:00.487Z,10.20
2023-01-09T18:41:28.248Z,10.20
2023-01-09T18:43:57.707Z,10.20
2023-01-09T18:46:25.241Z,10.10
2023-01-09T18:48:53.624Z,10.20
2023-01-09T18:51:21.305Z,10.10
2023-01-09T18:53:49.333Z,10.10
2023-01-09T18:56:16.693Z,10.10
2023-01-09T18:58:43.530Z,10.00
2023-01-09T19:01:10.541Z,10.00
2023-01-09T19:03:37.615Z,10.00
2023-01-09T19:06:05.054Z,10.00
2023-01-09T19:08:35.047Z,9.90
2023-01-09T19:11:02.414Z,9.80
2023-01-09T19:13:31.480Z,9.80
2023-01-09T19:15:59.113Z,9.80
2023-01-09T19:18:27.681Z,9.80
2023-01-09T19:20:55.371Z,9.70
2023-01-09T19:23:24.611Z,9.70
2023-01-09T19:25:53.166Z,9.70
2023-01-09T19:28:20.985Z,9.70
2023-01-09T19:30:53.912Z,9.70
2023-01-09T19:33:20.831Z,9.70
2023-01-09T19:35:51.796Z,9.70
2023-01-09T19:38:19.832Z,9.60
2023-01-09T19:40:46.690Z,9.60
2023-01-09T19:43:25.585Z,9.60
2023-01-09T19:45:56.379Z,9.50
2023-01-09T19:48:26.983Z,9.50
2023-01-09T19:51:04.903Z,9.50
2023-01-09T19:53:32.900Z,9.40
2023-01-09T19:56:14.653Z,9.50
2023-01-09T19:58:43.372Z,9.40
2023-01-09T20:01:13.323Z,9.40
2023-01-09T20:03:41.984Z,9.40
2023-01-09T20:06:14.476Z,9.40
2023-01-09T20:08:42.651Z,9.30
2023-01-09T20:11:09.519Z,9.30
2023-01-09T20:13:36.741Z,9.30
2023-01-09T20:16:04.364Z,9.40
2023-01-09T20:18:33.850Z,9.30
2023-01-09T20:21:01.810Z,9.30
2023-01-09T20:23:28.893Z,9.30
2023-01-09T20:25:57.372Z,9.30
2023-01-09T20:28:26.197Z,9.20
2023-01-09T20:30:54.129Z,9.30
2023-01-09T20:33:21.466Z,9.40
2023-01-09T20:35:48.631Z,9.20
2023-01-09T20:38:15.554Z,9.20
2023-01-09T20:40:43.938Z,9.30
2023-01-09T20:43:12.687Z,9.20
2023-01-09T20:45:40.676Z,9.20
2023-01-09T20:48:09.108Z,9.20
2023-01-09T20:50:35.960Z,9.10
2023-01-09T20:53:05.430Z,9.10
2023-01-09T20:55:33.420Z,9.10
2023-01-09T20:58:00.246Z,9.10
2023-01-09T21:00:31.634Z,9.10
2023-01-09T21:02:59.451Z,9.10
2023-01-09T21:05:26.673Z,9.10
2023-01-09T21:07:53.704Z,9.10
2023-01-09T21:10:20.706Z,9.10
2023-01-09T21:12:48.247Z,9.00
2023-01-09T21:15:17.861Z,9.10
2023-01-09T21:17:44.702Z,9.10
2023-01-09T21:20:14.816Z,9.00
2023-01-09T21:22:42.221Z,9.00
2023-01-09T21:25:09.594Z,9.00
2023-01-09T21:27:45.673Z,8.90
2023-01-09T21:30:12.798Z,8.90
2023-01-09T21:32:39.694Z,8.90
2023-01-09T21:35:07.115Z,8.80
2023-01-09T21:37:35.754Z,8.90
2023-01-09T21:40:03.501Z,8.90
2023-01-09T21:42:49.118Z,8.90
2023-01-09T21:45:36.780Z,8.80
2023-01-09T21:48:07.240Z,8.80
2023-01-09T21:50:35.266Z,8.80
2023-01-09T21:53:02.501Z,8.70
2023-01-09T21:55:32.048Z,9.00
2023-01-09T21:58:01.162Z,8.80
2023-01-09T22:00:29.290Z,8.70
2023-01-09T22:02:56.456Z,8.70
2023-01-09T22:05:24.699Z,8.60
2023-01-09T22:07:51.915Z,9.00
2023-01-09T22:10:19.016Z,8.60
2023-01-09T22:13:09.027Z,8.70
2023-01-09T22:15:35.849Z,8.70
2023-01-09T22:18:02.644Z,8.70
2023-01-09T22:20:29.577Z,8.70
2023-01-09T22:22:56.477Z,8.90
2023-01-09T22:25:23.327Z,8.60
2023-01-09T22:27:50.148Z,8.60
2023-01-09T22:30:17.564Z,8.60
2023-01-09T22:32:44.583Z,8.70
2023-01-09T22:35:11.487Z,8.60
2023-01-09T22:37:38.444Z,8.60
2023-01-09T22:40:05.837Z,8.60
2023-01-09T22:42:32.611Z,8.60
2023-01-09T22:44:59.469Z,8.60
2023-01-09T22:47:26.380Z,8.60
2023-01-09T22:49:53.868Z,8.60
2023-01-09T22:52:22.046Z,8.50
2023-01-09T22:54:49.011Z,8.50
2023-01-09T22:57:15.893Z,8.60
2023-01-09T22:59:42.829Z,8.90
2023-01-09T23:02:09.761Z,8.50
2023-01-09T23:04:36.656Z,8.60
2023-01-09T23:07:03.577Z,8.60
2023-01-09T23:09:30.437Z,8.70
2023-01-09T23:12:03.373Z,8.60
2023-01-09T23:14:38.173Z,8.50
2023-01-09T23:17:06.701Z,8.50
2023-01-09T23:19:33.760Z,8.50
2023-01-09T23:22:02.321Z,8.50
2023-01-09T23:24:29.740Z,8.70
2023-01-09T23:26:57.329Z,8.60
2023-01-09T23:29:25.503Z,8.40
2023-01-09T23:31:53.679Z,8.50
2023-01-09T23:34:24.131Z,8.60
2023-01-09T23:36:51.934Z,8.50
2023-01-09T23:39:18.825Z,8.50
2023-01-09T23:42:04.826Z,8.50
2023-01-09T23:44:31.782Z,8.60
2023-01-09T23:46:58.789Z,8.50
2023-01-09T23:49:25.792Z,8.50
2023-01-09T23:51:52.693Z,8.50
2023-01-09T23:54:19.675Z,8.40
2023-01-09T23:56:46.515Z,8.50
2023-01-09T23:59:14.678Z,8.50
